Time;durP1;ratioP1;P1;durP2;ratioP2;P2;SDS_P1;SDS_P2;PMS_P1;PMS_P2;Temp;Humidity;BMP_temperature;BMP_pressure;BME280_temperature;BME280_humidity;BME280_pressure;Samples;Min_cycle;Max_cycle;Signal;HPM_P1;HPM_P2
2022/12/25 00:02:01;;;;;;;6.97;3.67;;;17.70;60.60;18.80;100695.00;;;;5008601;28;20187;-48
2022/12/25 00:04:27;;;;;;;7.43;3.87;;;17.70;60.60;18.80;100698.00;;;;4992543;28;20174;-48
2022/12/25 00:06:52;;;;;;;5.53;3.60;;;17.60;60.40;18.80;100692.00;;;;5008580;28;20238;-48
2022/12/25 00:09:18;;;;;;;5.80;3.70;;;17.70;60.30;18.70;100703.00;;;;5008943;28;20196;-48
2022/12/25 00:11:44;;;;;;;7.37;3.70;;;17.70;60.30;18.70;100695.00;;;;4991928;28;20692;-47
2022/12/25 00:14:09;;;;;;;5.23;3.30;;;17.60;60.40;18.70;100697.00;;;;5009074;28;20512;-47
2022/12/25 00:16:35;;;;;;;5.60;3.10;;;17.60;60.50;18.60;100703.00;;;;5008598;28;20167;-47
2022/12/25 00:19:01;;;;;;;5.67;3.30;;;17.60;60.20;18.60;100697.00;;;;4992630;28;20175;-47
2022/12/25 00:21:28;;;;;;;5.40;3.20;;;17.60;60.50;18.60;100691.00;;;;5008724;28;20858;-47
2022/12/25 00:23:55;;;;;;;5.50;3.30;;;17.50;60.30;18.60;100691.00;;;;4992603;28;20211;-47
2022/12/25 00:26:20;;;;;;;4.70;3.10;;;17.50;60.40;18.60;100618.00;;;;5009246;28;20241;-47
2022/12/25 00:28:46;;;;;;;5.23;3.20;;;17.50;60.30;18.60;100691.00;;;;4992666;28;20187;-48
2022/12/25 00:31:16;;;;;;;4.47;3.00;;;17.50;60.40;18.60;100645.00;;;;4991465;28;20232;-46
2022/12/25 00:33:45;;;;;;;7.00;3.13;;;17.50;60.50;18.50;100703.00;;;;5007798;28;20175;-46
2022/12/25 00:36:11;;;;;;;4.57;2.90;;;17.50;61.40;18.50;100638.00;;;;5008514;28;20244;-48
2022/12/25 00:38:37;;;;;;;5.77;3.20;;;17.40;60.50;18.50;100602.00;;;;5021435;28;20175;-46
2022/12/25 00:41:15;;;;;;;4.40;3.00;;;17.40;60.40;18.50;100704.00;;;;5014740;28;20671;-47
2022/12/25 00:43:41;;;;;;;5.10;2.87;;;17.40;60.50;18.50;100700.00;;;;4992512;28;20564;-46
2022/12/25 00:46:06;;;;;;;4.77;3.07;;;17.30;60.40;18.50;100697.00;;;;5007579;28;20252;-49
2022/12/25 00:48:32;;;;;;;4.67;2.90;;;17.30;60.40;18.40;100685.00;;;;4990918;28;20258;-48
2022/12/25 00:51:01;;;;;;;5.00;2.90;;;17.30;60.50;18.40;100702.00;;;;4990600;28;20784;-47
2022/12/25 00:53:27;;;;;;;4.07;2.90;;;17.30;60.60;18.40;100622.00;;;;5006904;28;20184;-47
2022/12/25 00:55:55;;;;;;;5.13;2.87;;;17.30;60.30;18.40;100619.00;;;;5007084;28;20179;-47
2022/12/25 00:58:21;;;;;;;4.80;2.80;;;17.30;60.30;18.40;100703.00;;;;4991207;28;20190;-48
2022/12/25 01:00:48;;;;;;;4.33;2.80;;;17.30;60.30;18.30;100697.00;;;;5006841;28;20176;-47
2022/12/25 01:03:13;;;;;;;4.37;2.97;;;17.20;60.40;18.30;100692.00;;;;4990088;28;20183;-47
2022/12/25 01:05:39;;;;;;;5.43;3.10;;;17.20;60.30;18.30;100618.00;;;;5007072;28;20183;-47
2022/12/25 01:08:05;;;;;;;5.37;2.90;;;17.10;60.10;18.30;100700.00;;;;4990944;28;20179;-46
2022/12/25 01:10:31;;;;;;;4.70;2.90;;;17.00;60.40;18.20;100702.00;;;;4990079;28;20245;-47
2022/12/25 01:12:56;;;;;;;4.87;2.60;;;17.00;60.50;18.20;100708.00;;;;4989996;28;20191;-48
2022/12/25 01:15:22;;;;;;;3.73;2.67;;;17.10;60.60;18.20;100704.00;;;;5007020;28;20179;-47
2022/12/25 01:17:48;;;;;;;4.03;2.73;;;17.10;60.50;18.20;100700.00;;;;4990226;28;20183;-47
2022/12/25 01:20:14;;;;;;;4.33;2.67;;;17.00;60.30;18.20;100635.00;;;;5006737;28;20198;-47
2022/12/25 01:22:41;;;;;;;5.37;2.57;;;17.00;60.70;18.20;100713.00;;;;5005700;28;20199;-47
2022/12/25 01:25:08;;;;;;;3.90;2.80;;;17.00;60.70;18.10;100710.00;;;;5007267;28;20175;-47
2022/12/25 01:27:33;;;;;;;3.10;2.27;;;16.90;60.70;18.10;100715.00;;;;4990458;28;20508;-47
2022/12/25 01:29:59;;;;;;;4.30;2.40;;;16.90;60.80;18.10;100641.00;;;;4990164;28;20217;-47
2022/12/25 01:32:25;;;;;;;4.10;2.70;;;16.90;60.80;18.10;100726.00;;;;4989869;28;20203;-47
2022/12/25 01:34:51;;;;;;;4.23;2.70;;;16.80;60.50;18.00;100715.00;;;;5006665;28;20772;-47
2022/12/25 01:37:17;;;;;;;4.77;2.80;;;16.80;60.80;18.00;100723.00;;;;5006126;28;20243;-46
2022/12/25 01:39:42;;;;;;;4.80;2.70;;;16.80;60.70;18.00;100687.00;;;;5006674;28;20755;-47
2022/12/25 01:42:19;;;;;;;3.13;2.50;;;16.90;60.80;18.00;100637.00;;;;5006113;28;20198;-47
2022/12/25 01:44:45;;;;;;;3.80;2.43;;;16.90;60.90;18.00;100696.00;;;;5006722;28;20176;-48
2022/12/25 01:47:10;;;;;;;3.87;2.40;;;16.80;60.90;18.00;100702.00;;;;5007728;28;20516;-48
2022/12/25 01:49:37;;;;;;;2.97;2.30;;;16.70;60.90;18.00;100697.00;;;;4990049;28;20186;-48
2022/12/25 01:52:13;;;;;;;3.90;2.50;;;16.80;61.30;17.90;100699.00;;;;5007296;28;20189;-47
2022/12/25 01:54:52;;;;;;;4.23;2.37;;;16.70;61.10;17.90;100690.00;;;;5006969;28;20172;-47
2022/12/25 01:57:27;;;;;;;4.60;2.80;;;16.80;61.10;17.90;100681.00;;;;5006136;28;20177;-48
2022/12/25 01:59:53;;;;;;;3.90;2.70;;;16.80;61.00;17.90;100692.00;;;;5006146;28;20225;-48
2022/12/25 02:02:19;;;;;;;4.37;2.53;;;16.80;61.20;17.90;100628.00;;;;5005574;28;20227;-46
2022/12/25 02:05:21;;;;;;;4.20;2.50;;;16.80;61.10;17.90;100689.00;;;;5005490;28;20635;-47
2022/12/25 02:07:47;;;;;;;3.47;2.33;;;16.80;61.10;17.90;100698.00;;;;4987135;28;20690;-46
2022/12/25 02:10:13;;;;;;;3.73;2.30;;;16.70;60.90;17.90;100704.00;;;;4970163;28;20232;-48
2022/12/25 02:12:39;;;;;;;3.80;2.60;;;16.80;61.10;17.90;100701.00;;;;4985955;28;20200;-46
2022/12/25 02:15:12;;;;;;;4.77;2.70;;;16.80;60.90;17.90;100706.00;;;;4986092;28;20198;-47
2022/12/25 02:18:16;;;;;;;3.97;2.60;;;16.80;61.10;17.90;100705.00;;;;4986781;28;20253;-48
2022/12/25 02:21:08;;;;;;;3.37;2.37;;;16.70;60.90;17.80;100709.00;;;;4986958;28;20271;-48
2022/12/25 02:24:08;;;;;;;4.67;2.60;;;16.60;61.30;17.80;100626.00;;;;4972176;28;20154;-47
2022/12/25 02:27:06;;;;;;;3.13;2.20;;;16.70;61.20;17.80;100702.00;;;;4986253;28;20663;-49
2022/12/25 02:29:56;;;;;;;3.90;2.60;;;16.60;61.20;17.80;100706.00;;;;4971933;28;20171;-46
2022/12/25 02:32:33;;;;;;;3.90;2.60;;;16.70;61.30;17.80;100647.00;;;;4991807;28;20566;-47
2022/12/25 02:35:10;;;;;;;5.63;2.53;;;16.70;61.20;17.70;100704.00;;;;4971043;28;20226;-48
2022/12/25 02:37:54;;;;;;;3.30;2.30;;;16.60;61.30;17.70;100699.00;;;;4971115;28;20155;-48
2022/12/25 02:40:30;;;;;;;4.50;2.30;;;16.50;61.40;17.70;100702.00;;;;4973863;28;20624;-48
2022/12/25 03:08:34;;;;;;;3.63;2.40;;;16.50;61.80;17.60;100691.00;;;;4976344;28;20220;-47
2022/12/25 03:13:55;;;;;;;3.50;2.10;;;16.40;62.70;17.50;100685.00;;;;4977295;28;20248;-47
2022/12/25 03:27:55;;;;;;;2.53;2.10;;;16.30;62.20;17.40;100603.00;;;;4978484;28;20767;-49
2022/12/25 03:33:22;;;;;;;5.03;2.57;;;16.30;62.20;17.40;100609.00;;;;4989220;28;20191;-47
2022/12/25 03:36:13;;;;;;;2.77;2.13;;;16.30;62.30;17.50;100695.00;;;;4973376;28;20169;-47
2022/12/25 04:37:58;;;;;;;5.33;2.50;;;16.00;63.50;17.20;100567.00;;;;4974955;28;20611;-48
2022/12/25 04:40:24;;;;;;;5.77;2.50;;;16.00;63.50;17.20;100545.00;;;;4971737;28;20174;-49
2022/12/25 04:42:50;;;;;;;4.10;2.50;;;16.00;63.50;17.20;100576.00;;;;4989530;28;20201;-47
2022/12/25 04:45:16;;;;;;;5.27;2.50;;;16.10;63.60;17.20;100653.00;;;;4957074;28;20176;-47
2022/12/25 04:47:42;;;;;;;7.43;2.70;;;16.00;64.10;17.20;100654.00;;;;4956880;28;20698;-48
2022/12/25 04:50:07;;;;;;;4.57;2.27;;;16.10;63.40;17.20;100565.00;;;;4954921;28;20202;-48
2022/12/25 04:52:38;;;;;;;4.40;2.43;;;16.00;63.20;17.20;100590.00;;;;4955142;28;20229;-48
2022/12/25 04:55:04;;;;;;;4.83;2.60;;;16.00;63.30;17.10;100645.00;;;;4956070;28;20169;-48
2022/12/25 04:57:31;;;;;;;4.73;2.40;;;16.00;63.20;17.10;100642.00;;;;4987646;28;20197;-48
2022/12/25 04:59:57;;;;;;;5.10;2.53;;;16.00;63.20;17.10;100637.00;;;;4987529;28;20181;-48
2022/12/25 05:02:23;;;;;;;3.33;2.20;;;16.00;63.10;17.10;100629.00;;;;4970892;28;20201;-47
2022/12/25 05:04:48;;;;;;;4.73;2.57;;;16.00;63.10;17.10;100634.00;;;;4988655;28;20678;-48
2022/12/25 05:07:14;;;;;;;5.80;2.30;;;15.90;63.10;17.10;100640.00;;;;4988661;28;20891;-47
2022/12/25 05:09:40;;;;;;;5.00;2.43;;;16.00;63.20;17.10;100632.00;;;;4971153;28;20184;-47
2022/12/25 05:12:09;;;;;;;4.40;2.23;;;15.90;63.10;17.10;100553.00;;;;4987034;28;20185;-47
2022/12/25 05:14:35;;;;;;;5.13;2.60;;;15.90;63.30;17.10;100647.00;;;;4987751;28;20619;-49
2022/12/25 05:17:01;;;;;;;3.70;2.60;;;15.90;63.30;17.10;100643.00;;;;4988775;28;20174;-48
2022/12/25 05:19:27;;;;;;;4.00;2.50;;;15.90;63.10;17.10;100561.00;;;;4987993;28;20267;-48
2022/12/25 05:21:53;;;;;;;4.50;2.20;;;16.00;63.40;17.10;100586.00;;;;4988783;28;20199;-47
2022/12/25 05:24:19;;;;;;;6.27;2.70;;;15.90;63.30;17.10;100630.00;;;;4954868;28;20700;-48
2022/12/25 05:26:45;;;;;;;4.73;2.37;;;15.90;63.60;16.80;100633.00;;;;4970654;28;20172;-46
2022/12/25 05:29:10;;;;;;;3.83;2.30;;;15.90;63.50;17.10;100615.00;;;;4970953;28;20327;-47
2022/12/25 05:31:36;;;;;;;4.97;2.60;;;15.90;63.50;17.10;100604.00;;;;4995326;28;20278;-47
2022/12/25 05:34:02;;;;;;;3.73;2.20;;;15.90;63.50;17.00;100599.00;;;;4999588;28;21635;-49
2022/12/25 05:36:27;;;;;;;4.60;2.47;;;15.80;63.70;17.00;100512.00;;;;4996199;28;20646;-48
2022/12/25 05:38:53;;;;;;;4.60;2.63;;;15.80;63.90;17.00;100603.00;;;;4997234;28;20176;-48
2022/12/25 05:41:19;;;;;;;3.07;2.23;;;15.80;63.90;17.00;100497.00;;;;4962571;28;20279;-47
2022/12/25 05:43:45;;;;;;;3.97;2.40;;;15.70;63.90;17.00;100574.00;;;;4997745;28;20171;-48
2022/12/25 05:46:10;;;;;;;5.27;2.70;;;15.70;63.80;17.00;100576.00;;;;5007268;28;20251;-48
2022/12/25 05:48:36;;;;;;;4.40;2.27;;;15.80;63.70;16.90;100587.00;;;;4991179;28;20202;-48
2022/12/25 05:51:11;;;;;;;8.23;2.60;;;15.80;63.50;16.90;100590.00;;;;5008151;28;20195;-47
2022/12/25 05:53:36;;;;;;;4.90;2.67;;;15.80;64.00;17.00;100594.00;;;;4991729;28;20303;-48
2022/12/25 05:56:04;;;;;;;5.07;2.37;;;15.90;63.60;17.00;100603.00;;;;5002564;28;20274;-47
2022/12/25 05:58:31;;;;;;;4.47;2.30;;;15.90;63.30;17.00;100599.00;;;;4974989;28;20190;-48
2022/12/25 06:00:57;;;;;;;6.10;2.47;;;16.00;63.30;16.80;100599.00;;;;4990715;28;20244;-47
2022/12/25 06:03:23;;;;;;;4.57;2.60;;;15.90;63.10;17.00;100523.00;;;;5012435;28;20198;-47
2022/12/25 06:05:48;;;;;;;4.77;2.57;;;16.00;63.00;17.10;100582.00;;;;5014055;28;20695;-48
2022/12/25 06:08:14;;;;;;;4.17;2.23;;;16.00;63.00;17.10;100486.00;;;;4993214;28;20181;-48
2022/12/25 06:10:40;;;;;;;3.07;2.10;;;16.00;62.90;17.10;100576.00;;;;5007260;28;20679;-47
2022/12/25 06:13:05;;;;;;;4.37;2.30;;;16.00;62.90;17.10;100564.00;;;;5006445;28;20196;-48
2022/12/25 06:15:31;;;;;;;4.60;2.30;;;16.10;62.90;17.10;100493.00;;;;5007219;28;20187;-48
2022/12/25 06:18:00;;;;;;;3.83;2.10;;;16.00;62.80;17.10;100481.00;;;;5007575;28;20215;-47
2022/12/25 06:20:26;;;;;;;2.80;2.10;;;16.10;63.00;17.10;100562.00;;;;5007522;28;20195;-47
2022/12/25 06:22:52;;;;;;;2.87;2.10;;;16.00;62.80;17.10;100573.00;;;;5005966;28;20200;-48
2022/12/25 06:25:17;;;;;;;3.23;2.13;;;16.00;63.60;17.10;100558.00;;;;5006753;28;20581;-47
2022/12/25 06:27:43;;;;;;;2.77;2.00;;;16.00;62.70;17.10;100564.00;;;;5006173;28;20176;-47
2022/12/25 06:30:09;;;;;;;2.57;2.00;;;16.00;62.70;17.10;100556.00;;;;5006455;28;20199;-47
2022/12/25 06:32:35;;;;;;;3.33;2.00;;;16.00;62.70;17.10;100582.00;;;;5006148;28;20698;-48
2022/12/25 06:35:00;;;;;;;2.30;2.00;;;16.00;62.70;17.10;100496.00;;;;5006344;28;20182;-48
2022/12/25 06:37:26;;;;;;;2.43;2.07;;;16.00;62.70;17.10;100571.00;;;;5007101;28;20172;-47
2022/12/25 06:39:52;;;;;;;3.23;1.97;;;16.00;62.70;17.10;100548.00;;;;5010101;28;20170;-49
2022/12/25 06:42:18;;;;;;;3.50;2.03;;;16.00;62.60;17.10;100543.00;;;;5010069;28;20214;-48
2022/12/25 06:44:43;;;;;;;2.73;2.17;;;16.00;62.70;17.10;100446.00;;;;5010239;28;20179;-48
2022/12/25 06:47:09;;;;;;;3.83;1.97;;;16.00;62.60;17.10;100527.00;;;;4993849;28;20175;-48
2022/12/25 06:49:35;;;;;;;3.67;2.10;;;16.00;62.50;17.10;100510.00;;;;5010278;28;20178;-48
2022/12/25 06:52:01;;;;;;;3.10;2.07;;;16.00;62.50;17.00;100445.00;;;;5009579;28;20191;-47
2022/12/25 06:54:27;;;;;;;3.20;2.00;;;16.00;62.50;17.10;100434.00;;;;5009992;28;20271;-48
2022/12/25 06:56:52;;;;;;;2.53;2.00;;;16.00;62.60;17.00;100517.00;;;;5009817;28;20179;-48
2022/12/25 06:59:18;;;;;;;3.07;1.93;;;16.00;62.60;17.00;100449.00;;;;5010064;28;20194;-49
2022/12/25 07:01:52;;;;;;;3.07;2.03;;;15.90;62.40;17.00;100523.00;;;;5009652;28;20195;-47
2022/12/25 07:04:37;;;;;;;3.67;2.17;;;15.90;62.50;17.00;100462.00;;;;5009961;28;20165;-47
2022/12/25 07:07:04;;;;;;;2.17;1.93;;;15.90;62.50;17.00;100458.00;;;;5010561;28;20191;-47
2022/12/25 07:09:29;;;;;;;2.87;1.97;;;15.90;62.50;17.00;100537.00;;;;5009736;28;20263;-47
2022/12/25 07:12:14;;;;;;;2.40;1.80;;;15.90;62.40;17.00;100431.00;;;;5008982;28;20756;-47
2022/12/25 07:14:40;;;;;;;2.17;1.77;;;15.90;62.50;17.00;100498.00;;;;4994275;28;20683;-47
2022/12/25 07:17:05;;;;;;;2.43;1.83;;;15.90;62.40;17.00;100407.00;;;;5009807;28;20185;-48
2022/12/25 07:19:31;;;;;;;2.43;1.97;;;15.90;62.40;17.00;100486.00;;;;4993177;28;20798;-47
2022/12/25 07:21:57;;;;;;;2.67;1.90;;;15.90;62.50;17.00;100477.00;;;;5009459;28;20265;-48
2022/12/25 07:24:23;;;;;;;2.70;1.80;;;15.90;62.40;17.00;100469.00;;;;5009499;28;20783;-47
2022/12/25 07:26:49;;;;;;;2.33;1.90;;;15.90;62.40;16.70;100448.00;;;;5009287;28;20186;-47
2022/12/25 07:29:16;;;;;;;2.17;1.80;;;15.90;62.40;17.00;100471.00;;;;5009484;28;20645;-48
2022/12/25 07:31:41;;;;;;;1.80;1.60;;;15.90;62.40;17.00;100479.00;;;;4993137;28;20216;-47
2022/12/25 07:34:07;;;;;;;2.00;1.80;;;15.90;62.30;17.00;100477.00;;;;5025561;28;20198;-47
2022/12/25 07:36:33;;;;;;;2.30;1.80;;;15.90;62.30;17.00;100476.00;;;;5009341;28;20251;-48
2022/12/25 07:38:59;;;;;;;2.77;2.10;;;15.90;62.40;17.00;100397.00;;;;5009431;28;20684;-47
2022/12/25 07:41:24;;;;;;;2.17;1.77;;;15.90;62.30;17.00;100388.00;;;;5008088;28;20203;-47
2022/12/25 07:43:53;;;;;;;2.70;2.00;;;15.90;62.40;16.90;100388.00;;;;5009550;28;20178;-47
2022/12/25 07:46:20;;;;;;;2.27;1.80;;;15.90;62.40;16.90;100466.00;;;;4992370;28;20187;-47
2022/12/25 07:48:46;;;;;;;3.00;2.07;;;15.90;62.50;16.90;100460.00;;;;4993381;28;20184;-47
2022/12/25 07:51:12;;;;;;;2.33;1.93;;;15.90;62.40;16.70;100473.00;;;;4992042;28;20246;-47
2022/12/25 07:53:39;;;;;;;2.20;1.90;;;15.90;62.40;16.90;100398.00;;;;4977203;28;20631;-47
2022/12/25 07:56:07;;;;;;;2.37;1.90;;;15.90;62.40;16.90;100459.00;;;;5009409;28;20635;-47
2022/12/25 07:58:33;;;;;;;3.07;2.00;;;15.80;62.40;16.90;100463.00;;;;5008662;28;20194;-48
2022/12/25 08:01:05;;;;;;;4.53;2.37;;;15.90;62.50;16.80;100404.00;;;;5009122;28;20212;-47
2022/12/25 08:03:32;;;;;;;2.23;2.03;;;15.80;62.70;16.80;100397.00;;;;4992151;28;20172;-46
2022/12/25 08:06:16;;;;;;;2.13;1.90;;;15.80;62.70;16.80;100461.00;;;;4992698;28;20187;-48
2022/12/25 08:08:41;;;;;;;4.23;2.23;;;15.80;62.60;16.80;100478.00;;;;5008600;28;20219;-47
2022/12/25 08:11:08;;;;;;;3.60;2.40;;;15.80;62.60;16.80;100480.00;;;;4991522;28;20204;-47
2022/12/25 08:13:34;;;;;;;3.57;2.17;;;15.80;62.50;16.80;100467.00;;;;5008499;28;20164;-47
2022/12/25 08:16:01;;;;;;;2.60;2.20;;;15.90;62.90;16.80;100463.00;;;;4992809;28;20684;-47
2022/12/25 08:18:28;;;;;;;2.20;2.00;;;15.90;63.10;16.80;100474.00;;;;5015018;28;20648;-47
2022/12/25 08:20:54;;;;;;;4.73;1.93;;;15.90;62.80;16.90;100395.00;;;;5017306;28;20183;-47
2022/12/25 08:23:20;;;;;;;7.27;2.50;;;15.90;62.80;16.90;100472.00;;;;5000273;28;20181;-49
2022/12/25 08:25:45;;;;;;;24.17;3.30;;;16.00;62.70;16.90;100477.00;;;;5010584;28;20591;-49
2022/12/25 08:28:11;;;;;;;14.47;2.47;;;16.20;63.10;17.00;100408.00;;;;5010985;28;20707;-48
2022/12/25 08:30:38;;;;;;;11.47;2.43;;;16.30;62.90;17.00;100464.00;;;;5003220;28;20611;-48
2022/12/25 08:33:04;;;;;;;9.57;2.40;;;16.40;63.00;17.10;100461.00;;;;4988854;28;20275;-47
2022/12/25 08:35:34;;;;;;;4.73;1.87;;;16.50;63.10;17.20;100428.00;;;;4989886;28;20277;-48
2022/12/25 08:37:59;;;;;;;3.90;2.30;;;16.60;63.10;17.30;100412.00;;;;4989734;28;20790;-48
2022/12/25 08:40:25;;;;;;;5.73;2.00;;;16.80;63.20;17.40;100341.00;;;;4989188;28;20178;-48
2022/12/25 08:42:51;;;;;;;7.63;2.40;;;16.90;62.90;17.50;100421.00;;;;4990050;28;20270;-48
2022/12/25 08:45:17;;;;;;;7.53;1.90;;;17.10;62.70;17.30;100326.00;;;;4991242;28;20176;-48
2022/12/25 08:47:42;;;;;;;3.93;1.97;;;17.20;62.20;17.70;100376.00;;;;4995023;28;20237;-48
2022/12/25 08:50:08;;;;;;;3.97;2.10;;;17.40;61.90;17.80;100466.00;;;;4991975;28;20208;-48
2022/12/25 08:52:34;;;;;;;3.93;2.00;;;17.50;61.70;17.90;100478.00;;;;4990617;28;20536;-49
2022/12/25 08:55:00;;;;;;;3.13;1.90;;;17.70;61.40;18.00;100481.00;;;;4993018;28;20217;-47
2022/12/25 08:57:25;;;;;;;3.43;1.93;;;17.80;61.30;18.10;100501.00;;;;4992652;28;20186;-48
2022/12/25 08:59:51;;;;;;;6.57;2.13;;;17.90;61.20;18.20;100416.00;;;;5007771;28;20176;-49
2022/12/25 09:02:17;;;;;;;7.03;2.10;;;17.90;61.10;18.30;100401.00;;;;4990131;28;20575;-48
2022/12/25 09:04:45;;;;;;;4.03;1.80;;;17.90;61.20;18.30;100478.00;;;;5010134;28;20274;-47
2022/12/25 09:07:11;;;;;;;5.43;2.00;;;18.00;61.50;18.40;100406.00;;;;5010216;28;20175;-49
2022/12/25 09:09:36;;;;;;;2.93;2.00;;;17.90;61.40;18.40;100395.00;;;;5009357;28;20178;-47
2022/12/25 09:12:02;;;;;;;3.37;2.03;;;17.90;61.40;18.40;100451.00;;;;4986268;28;20229;-48
2022/12/25 09:14:29;;;;;;;2.53;1.97;;;17.90;61.70;18.50;100443.00;;;;4990577;28;20214;-47
2022/12/25 09:16:54;;;;;;;2.77;1.90;;;17.90;62.30;18.50;100442.00;;;;4993358;28;20178;-47
2022/12/25 09:19:20;;;;;;;3.77;1.87;;;17.80;62.60;18.50;100447.00;;;;4992742;28;20248;-47
2022/12/25 09:21:46;;;;;;;3.63;1.90;;;17.90;62.80;18.50;100460.00;;;;4993014;28;20206;-49
2022/12/25 09:24:12;;;;;;;3.83;1.80;;;17.80;62.70;18.50;100455.00;;;;4993834;28;20182;-46
2022/12/25 09:26:38;;;;;;;4.73;1.90;;;17.80;62.70;18.50;100364.00;;;;5006464;28;20186;-47
2022/12/25 09:29:04;;;;;;;4.73;1.80;;;17.80;63.10;18.50;100461.00;;;;4981660;28;20669;-47
2022/12/25 09:31:29;;;;;;;4.00;2.03;;;17.80;63.30;18.50;100344.00;;;;5009686;28;20205;-47
2022/12/25 09:33:56;;;;;;;3.03;1.70;;;17.80;63.30;18.30;100378.00;;;;5029681;28;20545;-46
2022/12/25 09:36:22;;;;;;;3.63;1.80;;;17.80;63.40;18.50;100396.00;;;;5022510;28;20758;-46
2022/12/25 09:38:48;;;;;;;2.57;1.93;;;17.80;63.30;18.50;100390.00;;;;5008962;28;20225;-46
2022/12/25 09:41:37;;;;;;;5.57;2.07;;;17.80;63.50;18.50;100404.00;;;;5009307;28;20187;-46
2022/12/25 09:44:31;;;;;;;3.00;1.90;;;17.80;63.90;18.50;100481.00;;;;4993417;28;20167;-48
2022/12/25 09:47:07;;;;;;;4.87;1.77;;;17.80;63.70;18.50;100398.00;;;;5004437;28;20196;-48
2022/12/25 09:49:49;;;;;;;3.67;1.73;;;17.70;63.80;18.50;100436.00;;;;5009397;28;20162;-46
2022/12/25 09:52:19;;;;;;;3.53;2.00;;;17.80;64.30;18.50;100498.00;;;;4974337;28;20219;-48
2022/12/25 09:54:47;;;;;;;5.03;2.03;;;17.70;64.50;18.50;100421.00;;;;4974804;28;20509;-48
2022/12/25 09:57:13;;;;;;;6.40;1.90;;;17.70;64.20;18.50;100498.00;;;;5006755;28;20188;-47
2022/12/25 09:59:42;;;;;;;2.17;1.80;;;17.70;64.40;18.50;100442.00;;;;4941785;28;20240;-47
2022/12/25 10:02:38;;;;;;;3.50;1.83;;;17.70;64.80;18.50;100498.00;;;;4957731;28;20271;-47
2022/12/25 10:06:10;;;;;;;2.70;1.93;;;17.70;65.60;18.50;100482.00;;;;4991757;28;20160;-47
2022/12/25 10:09:30;;;;;;;2.10;1.80;;;17.70;64.90;18.40;100477.00;;;;4959592;28;20223;-48
2022/12/25 10:12:34;;;;;;;4.83;1.87;;;17.60;64.90;18.40;100483.00;;;;4989122;28;20711;-47
2022/12/25 10:15:28;;;;;;;3.13;1.70;;;17.70;64.80;18.40;100482.00;;;;4990844;28;20723;-47
2022/12/25 10:18:12;;;;;;;6.17;2.10;;;17.60;64.80;18.40;100479.00;;;;4960730;28;20811;-47
2022/12/25 10:20:51;;;;;;;6.27;1.80;;;17.60;64.80;18.40;100398.00;;;;4990462;28;20168;-47
2022/12/25 10:23:21;;;;;;;2.23;1.80;;;17.60;64.70;18.40;100460.00;;;;4986259;28;20172;-47
2022/12/25 10:25:47;;;;;;;3.90;2.10;;;17.60;65.00;18.40;100384.00;;;;4993292;28;20582;-48
2022/12/25 10:28:40;;;;;;;7.37;2.00;;;17.70;64.70;18.40;100448.00;;;;4993126;28;20269;-48
2022/12/25 10:31:22;;;;;;;6.97;2.17;;;17.70;64.70;18.40;100361.00;;;;5008619;28;20720;-46
2022/12/25 10:33:49;;;;;;;10.23;2.63;;;17.70;64.80;18.30;100433.00;;;;5009200;28;20620;-48
2022/12/25 10:36:21;;;;;;;8.50;2.00;;;17.70;65.00;18.30;100343.00;;;;5008826;28;20171;-48
2022/12/25 10:38:47;;;;;;;2.83;1.93;;;17.60;64.80;18.30;100404.00;;;;4991977;28;20217;-48
2022/12/25 10:41:28;;;;;;;5.13;2.07;;;17.60;64.70;18.10;100433.00;;;;4990976;28;20552;-47
2022/12/25 10:43:55;;;;;;;5.47;2.00;;;17.60;64.80;18.30;100412.00;;;;5008616;28;20177;-48
2022/12/25 10:46:22;;;;;;;3.60;1.93;;;17.60;64.90;18.30;100384.00;;;;5009796;28;20179;-47
2022/12/25 10:48:56;;;;;;;3.90;1.80;;;17.60;64.90;18.30;100407.00;;;;4987097;28;20188;-48
2022/12/25 10:51:34;;;;;;;3.20;1.80;;;17.50;65.00;18.30;100325.00;;;;4976958;28;20238;-46
2022/12/25 10:54:21;;;;;;;2.73;1.90;;;17.60;65.60;18.20;100417.00;;;;4957013;28;20200;-48
2022/12/25 10:56:59;;;;;;;2.27;1.87;;;17.60;65.60;18.20;100408.00;;;;4986786;28;20254;-48
2022/12/25 10:59:26;;;;;;;4.00;1.80;;;17.60;65.60;18.20;100403.00;;;;4987845;28;20168;-48
2022/12/25 11:01:53;;;;;;;3.87;1.87;;;17.60;65.50;18.20;100417.00;;;;4985449;28;20211;-48
2022/12/25 11:04:23;;;;;;;2.90;1.87;;;17.60;65.40;18.20;100422.00;;;;4990173;28;20186;-48
2022/12/25 11:07:05;;;;;;;3.33;1.83;;;17.60;65.40;18.20;100372.00;;;;4991243;28;20749;-50
2022/12/25 11:09:31;;;;;;;2.70;1.90;;;17.50;65.30;17.90;100354.00;;;;4975720;28;20171;-48
2022/12/25 11:11:58;;;;;;;2.57;1.70;;;17.60;65.30;18.20;100387.00;;;;4988127;28;20211;-48
2022/12/25 11:14:25;;;;;;;2.07;1.70;;;17.50;65.20;18.20;100374.00;;;;5006839;28;20179;-47
2022/12/25 11:16:51;;;;;;;1.83;1.63;;;17.50;65.30;18.20;100288.00;;;;4992278;28;20187;-47
2022/12/25 11:19:35;;;;;;;4.27;1.70;;;17.50;65.20;18.20;100355.00;;;;4991535;28;20227;-48
2022/12/25 11:22:02;;;;;;;2.23;1.50;;;17.50;65.00;18.20;100352.00;;;;4991748;28;20202;-47
2022/12/25 11:24:30;;;;;;;1.83;1.70;;;17.50;65.00;18.20;100343.00;;;;4961514;28;20622;-47
2022/12/25 11:27:01;;;;;;;2.97;1.70;;;17.50;65.10;18.20;100308.00;;;;5017616;28;20203;-46
2022/12/25 11:29:44;;;;;;;2.90;1.60;;;17.50;65.10;18.20;100298.00;;;;4982091;28;20249;-48
2022/12/25 11:32:31;;;;;;;2.80;1.70;;;17.50;64.90;18.10;100297.00;;;;4998296;28;20715;-49
2022/12/25 11:34:58;;;;;;;2.77;1.80;;;17.50;65.00;18.10;100288.00;;;;5015182;28;20157;-47
2022/12/25 11:37:37;;;;;;;1.80;1.70;;;17.50;65.20;18.10;100273.00;;;;4997282;28;20671;-48
2022/12/25 11:40:04;;;;;;;2.13;1.70;;;17.50;65.30;18.10;100265.00;;;;4995783;28;20272;-48
2022/12/25 11:42:39;;;;;;;2.53;1.97;;;17.50;65.40;18.10;100267.00;;;;4993039;28;20305;-46
2022/12/25 11:45:15;;;;;;;4.00;1.80;;;17.50;65.70;18.10;100275.00;;;;4977338;28;20190;-47
2022/12/25 11:47:59;;;;;;;5.13;1.67;;;17.50;65.60;18.10;100185.00;;;;5005709;28;20208;-48
2022/12/25 11:50:34;;;;;;;2.47;1.57;;;17.40;65.40;18.10;100174.00;;;;4979897;28;20197;-48
2022/12/25 11:53:04;;;;;;;3.30;1.73;;;17.50;65.20;17.80;100153.00;;;;4979103;28;20186;-47
2022/12/25 11:55:53;;;;;;;4.37;1.90;;;17.50;65.10;18.10;100237.00;;;;4963153;28;20167;-48
2022/12/25 11:58:29;;;;;;;2.70;1.90;;;17.40;64.90;18.10;100240.00;;;;4997578;28;20182;-49
2022/12/25 12:00:56;;;;;;;2.70;1.90;;;17.40;64.90;18.10;100235.00;;;;5010531;28;20167;-47
2022/12/25 12:03:39;;;;;;;3.07;1.77;;;17.40;64.80;18.10;100231.00;;;;4978631;28;20181;-49
2022/12/25 12:06:22;;;;;;;2.00;1.70;;;17.40;64.80;18.10;100152.00;;;;4994857;28;20253;-49
2022/12/25 12:08:48;;;;;;;1.97;1.73;;;17.40;64.80;18.00;100246.00;;;;4979440;28;20166;-48
2022/12/25 12:11:21;;;;;;;3.90;2.00;;;17.40;64.70;18.00;100145.00;;;;4993782;28;20250;-47
2022/12/25 12:14:33;;;;;;;1.83;1.60;;;17.40;64.60;18.00;100227.00;;;;4962995;28;20206;-47
2022/12/25 12:16:59;;;;;;;2.93;1.97;;;17.40;64.70;18.00;100142.00;;;;4992696;28;20176;-48
2022/12/25 12:19:26;;;;;;;2.23;1.67;;;17.40;64.50;18.00;100211.00;;;;4974948;28;20699;-48
2022/12/25 12:22:00;;;;;;;2.87;1.73;;;17.40;64.50;18.00;100148.00;;;;4974906;28;20203;-48
2022/12/25 12:24:40;;;;;;;2.60;1.70;;;17.30;64.50;18.00;100211.00;;;;4977338;28;20210;-48
2022/12/25 12:27:16;;;;;;;2.37;1.97;;;17.30;64.40;18.00;100172.00;;;;4976987;28;20164;-48
2022/12/25 12:29:43;;;;;;;3.27;1.60;;;17.40;64.40;18.00;100211.00;;;;4991184;28;20618;-48
2022/12/25 12:32:38;;;;;;;3.00;1.60;;;17.40;64.20;18.10;100216.00;;;;4974936;28;20215;-49
2022/12/25 12:35:17;;;;;;;2.57;1.80;;;17.50;64.10;18.10;100207.00;;;;4985050;28;20194;-48
2022/12/25 12:37:43;;;;;;;2.00;1.50;;;17.50;64.10;18.20;100207.00;;;;4970061;28;20219;-47
2022/12/25 12:40:32;;;;;;;2.10;1.50;;;17.60;64.00;18.30;100128.00;;;;4966956;28;20190;-47
2022/12/25 12:42:58;;;;;;;1.77;1.53;;;17.70;63.90;18.30;100212.00;;;;4975264;28;20230;-49
2022/12/25 12:45:35;;;;;;;3.00;1.70;;;17.70;63.90;18.40;100148.00;;;;4959084;28;20715;-49